createdAt,value
2022-08-26T00:00:57.150Z,16.37
2022-08-26T00:03:25.272Z,16.36
2022-08-26T00:05:53.284Z,16.31
2022-08-26T00:08:21.881Z,16.29
2022-08-26T00:10:50.271Z,16.25
2022-08-26T00:13:19.616Z,16.22
2022-08-26T00:15:48.179Z,16.17
2022-08-26T00:18:22.342Z,16.15
2022-08-26T00:20:51.720Z,16.14
2022-08-26T00:23:20.567Z,16.11
2022-08-26T00:25:53.511Z,16.11
2022-08-26T00:28:22.626Z,16.07
2022-08-26T00:30:52.304Z,16.03
2022-08-26T00:33:20.461Z,16.00
2022-08-26T00:35:49.265Z,15.96
2022-08-26T00:38:21.372Z,15.93
2022-08-26T00:40:56.862Z,15.91
2022-08-26T00:43:26.086Z,15.88
2022-08-26T00:46:25.456Z,15.84
2022-08-26T00:49:03.219Z,15.78
2022-08-26T00:51:31.908Z,15.74
2022-08-26T00:54:10.853Z,15.69
2022-08-26T00:56:55.487Z,15.65
2022-08-26T00:59:25.459Z,15.62
2022-08-26T01:01:54.203Z,15.59
2022-08-26T01:04:24.177Z,15.54
2022-08-26T01:06:55.060Z,15.50
2022-08-26T01:09:23.937Z,15.47
2022-08-26T01:11:56.515Z,15.43
2022-08-26T01:14:27.292Z,15.40
2022-08-26T01:16:55.778Z,15.38
2022-08-26T01:19:28.915Z,15.36
2022-08-26T01:22:02.828Z,15.37
2022-08-26T01:24:32.027Z,15.32
2022-08-26T01:27:07.943Z,15.31
2022-08-26T01:29:39.438Z,15.28
2022-08-26T01:32:11.007Z,15.28
2022-08-26T01:34:40.632Z,15.29
2022-08-26T01:37:18.704Z,15.28
2022-08-26T01:39:50.228Z,15.28
2022-08-26T01:42:21.076Z,15.26
2022-08-26T01:45:01.164Z,15.24
2022-08-26T01:47:31.988Z,15.20
2022-08-26T01:50:03.131Z,15.19
2022-08-26T01:52:35.593Z,15.18
2022-08-26T01:55:04.928Z,15.16
2022-08-26T01:57:34.327Z,15.13
2022-08-26T02:00:06.767Z,15.11
2022-08-26T02:02:42.840Z,15.06
2022-08-26T02:05:18.747Z,15.04
2022-08-26T02:07:48.362Z,15.04
2022-08-26T02:10:16.490Z,15.02
2022-08-26T02:12:49.109Z,15.02
2022-08-26T02:15:17.214Z,15.00
2022-08-26T02:17:47.665Z,14.97
2022-08-26T02:20:18.959Z,14.92
2022-08-26T02:22:47.853Z,14.88
2022-08-26T02:25:18.925Z,14.85
2022-08-26T02:27:48.549Z,14.82
2022-08-26T02:30:20.690Z,14.77
2022-08-26T02:32:49.815Z,14.75
2022-08-26T02:35:20.633Z,14.74
2022-08-26T02:37:50.191Z,14.72
2022-08-26T02:40:22.700Z,14.71
2022-08-26T02:42:53.023Z,14.71
2022-08-26T02:45:26.358Z,14.73
2022-08-26T02:47:56.380Z,14.75
2022-08-26T02:50:26.570Z,14.81
2022-08-26T02:52:54.781Z,14.85
2022-08-26T02:55:24.693Z,14.82
2022-08-26T02:57:53.034Z,14.79
2022-08-26T03:00:21.712Z,14.71
2022-08-26T03:02:51.978Z,14.68
2022-08-26T03:05:22.229Z,14.63
2022-08-26T03:07:52.945Z,14.60
2022-08-26T03:10:22.650Z,14.58
2022-08-26T03:12:50.809Z,14.56
2022-08-26T03:15:20.512Z,14.54
2022-08-26T03:17:50.400Z,14.52
2022-08-26T03:20:18.967Z,14.50
2022-08-26T03:22:47.419Z,14.50
2022-08-26T03:25:19.635Z,14.48
2022-08-26T03:27:48.062Z,14.48
2022-08-26T03:30:35.676Z,14.49
2022-08-26T03:33:04.795Z,14.46
2022-08-26T03:35:33.678Z,14.42
2022-08-26T03:38:03.534Z,14.38
2022-08-26T03:40:34.085Z,14.37
2022-08-26T03:43:04.179Z,14.36
2022-08-26T03:45:32.404Z,14.33
2022-08-26T03:48:00.520Z,14.33
2022-08-26T03:50:30.592Z,14.29
2022-08-26T03:53:04.199Z,14.29
2022-08-26T03:55:35.436Z,14.28
2022-08-26T03:58:03.667Z,14.28
2022-08-26T04:00:31.830Z,14.28
2022-08-26T04:03:02.533Z,14.29
2022-08-26T04:05:31.515Z,14.31
2022-08-26T04:08:00.201Z,14.33
2022-08-26T04:10:28.949Z,14.34
2022-08-26T04:12:59.512Z,14.34
2022-08-26T04:15:28.534Z,14.36
2022-08-26T04:17:57.557Z,14.38
2022-08-26T04:20:27.263Z,14.41
2022-08-26T04:22:56.285Z,14.45
2022-08-26T04:25:25.180Z,14.50
2022-08-26T04:27:53.270Z,14.53
2022-08-26T04:30:22.057Z,14.56
2022-08-26T04:32:50.432Z,14.60
2022-08-26T04:35:21.773Z,14.63
2022-08-26T04:37:54.257Z,14.66
2022-08-26T04:40:23.455Z,14.71
2022-08-26T04:42:51.802Z,14.78
2022-08-26T04:45:22.941Z,14.83
2022-08-26T04:47:59.075Z,14.90
2022-08-26T04:50:27.183Z,14.95
2022-08-26T04:52:55.888Z,15.00
2022-08-26T04:55:38.695Z,15.01
2022-08-26T04:58:10.534Z,15.06
2022-08-26T05:00:38.924Z,15.10
2022-08-26T05:03:07.822Z,15.17
2022-08-26T05:05:43.336Z,15.23
2022-08-26T05:08:13.998Z,15.31
2022-08-26T05:10:48.207Z,15.41
2022-08-26T05:13:18.910Z,15.48
2022-08-26T05:15:50.092Z,15.56
2022-08-26T05:18:21.473Z,15.63
2022-08-26T05:20:54.901Z,15.72
2022-08-26T05:23:24.679Z,15.84
2022-08-26T05:25:59.371Z,15.94
2022-08-26T05:28:30.128Z,16.00
2022-08-26T05:30:59.670Z,16.08
2022-08-26T05:33:30.007Z,16.15
2022-08-26T05:35:58.917Z,16.24
2022-08-26T05:38:30.432Z,16.33
2022-08-26T05:40:59.213Z,16.43
2022-08-26T05:43:27.837Z,16.53
2022-08-26T05:45:57.754Z,16.63
2022-08-26T05:48:25.971Z,16.72
2022-08-26T05:50:54.154Z,16.79
2022-08-26T05:53:26.111Z,16.79
2022-08-26T05:55:56.110Z,16.93
2022-08-26T05:58:24.654Z,17.04
2022-08-26T06:01:14.980Z,17.15
2022-08-26T06:03:46.367Z,17.27
2022-08-26T06:06:28.079Z,17.39
2022-08-26T06:09:00.950Z,17.53
2022-08-26T06:11:32.589Z,17.66
2022-08-26T06:14:04.672Z,17.79
2022-08-26T06:16:38.579Z,17.93
2022-08-26T06:19:11.793Z,18.07
2022-08-26T06:21:42.119Z,18.18
2022-08-26T06:24:31.101Z,18.28
2022-08-26T06:27:02.389Z,18.41
2022-08-26T06:29:36.158Z,18.51
2022-08-26T06:32:17.733Z,18.61
2022-08-26T06:34:47.160Z,18.75
2022-08-26T06:37:16.246Z,18.89
2022-08-26T06:39:44.467Z,19.03
2022-08-26T06:42:15.568Z,19.16
2022-08-26T06:44:44.735Z,19.30
2022-08-26T06:47:13.202Z,19.43
2022-08-26T06:49:44.314Z,19.58
2022-08-26T06:52:19.958Z,19.76
2022-08-26T06:54:51.334Z,19.93
2022-08-26T06:57:22.663Z,20.09
2022-08-26T06:59:52.075Z,20.24
2022-08-26T07:02:21.157Z,20.37
2022-08-26T07:04:51.070Z,20.51
2022-08-26T07:07:22.009Z,20.66
2022-08-26T07:09:52.731Z,20.79
2022-08-26T07:12:21.778Z,20.99
2022-08-26T07:14:50.072Z,21.19
2022-08-26T07:17:20.446Z,21.35
2022-08-26T07:19:49.318Z,21.50
2022-08-26T07:22:18.924Z,21.65
2022-08-26T07:24:47.671Z,21.80
2022-08-26T07:27:17.352Z,21.93
2022-08-26T07:29:45.845Z,22.09
2022-08-26T07:32:16.509Z,22.29
2022-08-26T07:34:46.366Z,22.44
2022-08-26T07:37:16.242Z,22.58
2022-08-26T07:39:46.260Z,22.74
2022-08-26T07:42:18.462Z,22.88
2022-08-26T07:44:47.679Z,22.97
2022-08-26T07:47:24.694Z,23.11
2022-08-26T07:50:05.781Z,23.27
2022-08-26T07:52:45.014Z,23.43
2022-08-26T07:55:15.487Z,23.60
2022-08-26T07:57:44.208Z,23.74
2022-08-26T08:00:22.250Z,23.87
2022-08-26T08:02:51.928Z,23.97
2022-08-26T08:05:33.462Z,24.04
2022-08-26T08:08:27.757Z,24.18
2022-08-26T08:10:53.965Z,24.29
2022-08-26T08:13:24.640Z,24.40
2022-08-26T08:15:52.875Z,24.50
2022-08-26T08:18:21.126Z,24.56
2022-08-26T08:20:59.305Z,24.60
2022-08-26T08:23:35.641Z,24.79
2022-08-26T08:26:10.649Z,24.84
2022-08-26T08:28:41.589Z,24.93
2022-08-26T08:37:14.216Z,25.34
2022-08-26T08:39:43.787Z,25.49
2022-08-26T08:42:30.149Z,25.59
2022-08-26T08:45:02.897Z,25.77
2022-08-26T08:47:40.058Z,25.93
2022-08-26T08:50:31.731Z,26.11
2022-08-26T08:53:34.071Z,26.28
2022-08-26T08:56:33.945Z,26.47
2022-08-26T08:59:17.564Z,26.55
2022-08-26T09:01:52.577Z,26.59
2022-08-26T09:04:42.451Z,26.74
2022-08-26T09:07:21.569Z,26.90
2022-08-26T09:10:00.668Z,26.99
2022-08-26T09:12:33.381Z,27.11
2022-08-26T09:15:18.037Z,27.10
2022-08-26T09:18:07.219Z,27.22
2022-08-26T09:21:10.731Z,27.28
2022-08-26T09:23:41.895Z,27.33
2022-08-26T09:26:25.864Z,27.41
2022-08-26T09:29:05.472Z,27.56
2022-08-26T09:31:41.810Z,27.71
2022-08-26T09:34:26.455Z,27.80
2022-08-26T09:36:58.582Z,27.77
2022-08-26T09:39:33.287Z,27.84
2022-08-26T09:42:06.667Z,28.04
2022-08-26T09:45:03.195Z,28.27
2022-08-26T09:47:53.003Z,28.50
2022-08-26T09:50:29.130Z,28.54
2022-08-26T09:53:15.156Z,28.81
2022-08-26T09:55:46.417Z,29.18
2022-08-26T09:58:34.637Z,29.56
2022-08-26T10:01:23.993Z,29.83
2022-08-26T10:03:53.107Z,30.14
2022-08-26T10:06:26.827Z,30.21
2022-08-26T10:09:01.937Z,30.09
2022-08-26T10:11:44.278Z,29.99
2022-08-26T10:14:16.291Z,29.74
2022-08-26T10:17:03.692Z,29.98
2022-08-26T10:19:56.721Z,30.05
2022-08-26T10:22:50.056Z,30.10
2022-08-26T10:25:25.224Z,30.39
2022-08-26T10:28:33.075Z,30.35
2022-08-26T10:31:16.108Z,30.51
2022-08-26T10:33:47.755Z,30.61
2022-08-26T10:36:52.423Z,31.01
2022-08-26T10:39:39.238Z,31.10
2022-08-26T10:42:16.585Z,31.54
2022-08-26T10:44:50.799Z,31.73
2022-08-26T10:47:31.849Z,31.71
2022-08-26T10:50:03.225Z,31.57
2022-08-26T10:52:59.859Z,31.77
2022-08-26T10:55:28.623Z,31.74
2022-08-26T10:58:08.085Z,31.73
2022-08-26T11:01:16.996Z,31.95
2022-08-26T11:04:10.854Z,32.19
2022-08-26T11:06:39.418Z,32.59
2022-08-26T11:09:10.240Z,32.81
2022-08-26T11:11:41.675Z,33.22
2022-08-26T11:14:33.037Z,33.04
2022-08-26T11:17:47.110Z,32.95
2022-08-26T11:20:33.028Z,33.01
2022-08-26T11:23:13.511Z,33.53
2022-08-26T11:25:57.517Z,33.46
2022-08-26T11:28:45.620Z,33.42
2022-08-26T11:31:24.202Z,33.35
2022-08-26T11:33:59.100Z,33.43
2022-08-26T11:36:54.797Z,33.28
2022-08-26T11:39:29.055Z,32.98
2022-08-26T11:42:27.823Z,33.19
2022-08-26T11:44:58.218Z,33.72
2022-08-26T11:47:32.371Z,34.26
2022-08-26T11:50:11.056Z,34.31
2022-08-26T11:52:41.973Z,34.44
2022-08-26T11:55:14.759Z,34.67
2022-08-26T11:57:54.178Z,34.86
2022-08-26T12:00:34.503Z,34.61
2022-08-26T12:03:08.735Z,34.46
2022-08-26T12:05:45.381Z,34.99
2022-08-26T12:08:21.745Z,35.49
2022-08-26T12:11:03.594Z,35.39
2022-08-26T12:13:34.380Z,35.31
2022-08-26T12:16:04.080Z,35.84
2022-08-26T12:18:38.289Z,36.15
2022-08-26T12:21:20.387Z,35.98
2022-08-26T12:23:59.649Z,35.65
2022-08-26T12:26:30.639Z,35.75
2022-08-26T12:29:26.955Z,36.48
2022-08-26T12:32:18.709Z,36.07
2022-08-26T12:34:57.001Z,36.10
2022-08-26T12:37:38.139Z,36.51
2022-08-26T12:40:32.587Z,36.76
2022-08-26T12:43:09.174Z,37.00
2022-08-26T12:45:43.416Z,37.00
2022-08-26T12:48:20.801Z,37.54
2022-08-26T12:50:53.513Z,37.73
2022-08-26T12:53:28.021Z,38.31
2022-08-26T12:55:58.095Z,37.31
2022-08-26T12:58:30.108Z,36.68
2022-08-26T13:01:07.759Z,36.93
2022-08-26T13:03:48.166Z,37.41
2022-08-26T13:06:22.594Z,37.84
2022-08-26T13:09:01.920Z,38.28
2022-08-26T13:11:43.152Z,37.49
2022-08-26T13:14:22.253Z,37.12
2022-08-26T13:16:53.662Z,37.38
2022-08-26T13:19:30.149Z,36.67
2022-08-26T13:22:02.144Z,36.91
2022-08-26T13:24:40.697Z,37.69
2022-08-26T13:27:12.882Z,37.52
2022-08-26T13:29:42.190Z,37.90
2022-08-26T13:32:10.947Z,37.89
2022-08-26T13:34:39.367Z,37.83
2022-08-26T13:37:08.255Z,38.34
2022-08-26T13:39:37.019Z,38.37
2022-08-26T13:42:05.521Z,37.67
2022-08-26T13:44:33.661Z,38.20
2022-08-26T13:47:04.082Z,38.33
2022-08-26T13:49:33.403Z,37.58
2022-08-26T13:52:03.739Z,38.30
2022-08-26T13:54:32.474Z,37.72
2022-08-26T13:57:00.962Z,38.02
2022-08-26T13:59:29.200Z,36.92
2022-08-26T14:01:59.966Z,36.99
2022-08-26T14:04:28.674Z,37.25
2022-08-26T14:06:57.225Z,37.37
2022-08-26T14:09:25.395Z,36.28
2022-08-26T14:11:54.770Z,36.44
2022-08-26T14:14:23.387Z,36.53
2022-08-26T14:16:59.289Z,37.15
2022-08-26T14:19:31.265Z,38.28
2022-08-26T14:22:01.036Z,38.78
2022-08-26T14:24:30.526Z,39.29
2022-08-26T14:26:58.863Z,39.28
2022-08-26T14:29:27.761Z,39.62
2022-08-26T14:31:58.744Z,39.18
2022-08-26T14:34:27.221Z,39.45
2022-08-26T14:36:55.395Z,38.99
2022-08-26T14:39:24.374Z,38.59
2022-08-26T14:41:56.973Z,39.18
2022-08-26T14:44:33.127Z,39.66
2022-08-26T14:47:04.152Z,39.75
2022-08-26T14:49:32.530Z,39.59
2022-08-26T14:52:00.761Z,39.31
2022-08-26T14:54:29.675Z,39.57
2022-08-26T14:57:04.082Z,39.41
2022-08-26T14:59:42.594Z,38.72
2022-08-26T15:02:20.333Z,39.28
2022-08-26T15:05:03.252Z,39.33
2022-08-26T15:07:32.021Z,38.89
2022-08-26T15:10:18.116Z,39.28
2022-08-26T15:12:47.052Z,38.70
2022-08-26T15:15:18.699Z,38.03
2022-08-26T15:17:46.871Z,38.14
2022-08-26T15:20:17.973Z,38.68
2022-08-26T15:22:46.137Z,39.13
2022-08-26T15:25:15.846Z,38.35
2022-08-26T15:27:44.344Z,38.23
2022-08-26T15:30:13.225Z,38.22
2022-08-26T15:32:41.805Z,37.73
2022-08-26T15:35:10.324Z,37.16
2022-08-26T15:37:39.218Z,37.81
2022-08-26T15:40:12.813Z,36.87
2022-08-26T15:42:42.209Z,37.84
2022-08-26T15:45:11.999Z,37.26
2022-08-26T15:48:00.724Z,36.96
2022-08-26T15:50:30.240Z,37.63
2022-08-26T15:53:02.029Z,38.02
2022-08-26T15:55:30.074Z,37.70
2022-08-26T15:58:00.922Z,38.10
2022-08-26T16:00:30.049Z,38.63
2022-08-26T16:02:59.424Z,38.30
2022-08-26T16:05:27.550Z,37.63
2022-08-26T16:07:57.077Z,37.31
2022-08-26T16:10:25.098Z,36.90
2022-08-26T16:12:54.630Z,36.67
2022-08-26T16:15:24.236Z,36.58
2022-08-26T16:17:52.536Z,36.15
2022-08-26T16:20:24.975Z,36.34
2022-08-26T16:22:54.192Z,36.40
2022-08-26T16:25:22.959Z,35.97
2022-08-26T16:27:52.221Z,36.09
2022-08-26T16:30:21.699Z,36.26
2022-08-26T16:32:52.321Z,35.55
2022-08-26T16:35:26.823Z,35.85
2022-08-26T16:37:58.493Z,35.75
2022-08-26T16:40:26.951Z,35.61
2022-08-26T16:42:55.215Z,35.00
2022-08-26T16:45:24.847Z,33.79
2022-08-26T16:47:55.478Z,33.32
2022-08-26T16:50:24.163Z,32.69
2022-08-26T16:52:56.408Z,32.28
2022-08-26T16:55:25.587Z,31.81
2022-08-26T16:57:53.826Z,31.29
2022-08-26T17:00:27.793Z,30.88
2022-08-26T17:02:59.640Z,30.35
2022-08-26T17:05:29.655Z,30.11
2022-08-26T17:07:59.776Z,29.84
2022-08-26T17:10:29.738Z,29.55
2022-08-26T17:13:00.633Z,29.25
2022-08-26T17:15:28.844Z,28.97
2022-08-26T17:17:57.430Z,28.69
2022-08-26T17:20:26.612Z,28.40
2022-08-26T17:22:55.446Z,28.01
2022-08-26T17:25:31.754Z,27.58
2022-08-26T17:28:02.354Z,27.17
2022-08-26T17:30:32.161Z,26.79
2022-08-26T17:33:01.468Z,26.46
2022-08-26T17:35:39.368Z,26.21
2022-08-26T17:38:07.875Z,25.98
2022-08-26T17:40:36.059Z,25.73
2022-08-26T17:43:07.024Z,25.48
2022-08-26T17:45:40.467Z,25.23
2022-08-26T17:48:10.751Z,25.02
2022-08-26T17:50:41.426Z,24.82
2022-08-26T17:53:18.564Z,24.59
2022-08-26T17:55:48.891Z,24.27
2022-08-26T17:58:20.027Z,24.06
2022-08-26T18:00:51.128Z,23.87
2022-08-26T18:03:19.405Z,23.64
2022-08-26T18:05:49.398Z,23.47
2022-08-26T18:08:17.572Z,23.28
2022-08-26T18:10:46.981Z,23.09
2022-08-26T18:13:17.623Z,22.90
2022-08-26T18:15:47.161Z,22.70
2022-08-26T18:18:15.969Z,22.57
2022-08-26T18:20:45.359Z,22.44
2022-08-26T18:23:13.810Z,22.33
2022-08-26T18:25:43.546Z,22.21
2022-08-26T18:28:13.602Z,22.11
2022-08-26T18:30:43.845Z,22.00
2022-08-26T18:33:12.375Z,21.90
2022-08-26T18:35:45.128Z,21.80
2022-08-26T18:38:15.487Z,21.71
2022-08-26T18:40:46.022Z,21.61
2022-08-26T18:43:14.199Z,21.53
2022-08-26T18:45:46.331Z,21.43
2022-08-26T18:48:15.090Z,21.33
2022-08-26T18:50:47.186Z,21.25
2022-08-26T18:53:15.850Z,21.15
2022-08-26T18:55:43.906Z,21.07
2022-08-26T18:58:12.192Z,20.96
2022-08-26T19:00:40.957Z,20.86
2022-08-26T19:03:18.789Z,20.75
2022-08-26T19:05:47.366Z,20.67
2022-08-26T19:08:16.625Z,20.57
2022-08-26T19:10:44.704Z,20.49
2022-08-26T19:13:13.792Z,20.43
2022-08-26T19:15:45.679Z,20.35
2022-08-26T19:18:15.434Z,20.29
2022-08-26T19:20:48.069Z,20.25
2022-08-26T19:23:33.594Z,20.20
2022-08-26T19:26:06.456Z,20.13
2022-08-26T19:28:35.090Z,20.07
2022-08-26T19:31:04.126Z,20.02
2022-08-26T19:33:34.808Z,19.95
2022-08-26T19:36:06.379Z,19.91
2022-08-26T19:38:35.444Z,19.85
2022-08-26T19:41:03.937Z,19.81
2022-08-26T19:43:32.420Z,19.73
2022-08-26T19:46:00.650Z,19.67
2022-08-26T19:48:29.349Z,19.61
2022-08-26T19:50:57.554Z,19.54
2022-08-26T19:53:25.637Z,19.50
2022-08-26T19:55:53.913Z,19.43
2022-08-26T19:58:21.995Z,19.37
2022-08-26T20:00:50.437Z,19.31
2022-08-26T20:03:18.641Z,19.26
2022-08-26T20:05:47.439Z,19.21
2022-08-26T20:08:22.602Z,19.16
2022-08-26T20:10:51.725Z,19.12
2022-08-26T20:13:21.362Z,19.07
2022-08-26T20:15:49.599Z,19.02
2022-08-26T20:18:36.062Z,18.96
2022-08-26T20:21:22.522Z,18.90
2022-08-26T20:23:51.738Z,18.81
2022-08-26T20:26:21.063Z,18.76
2022-08-26T20:28:51.079Z,18.70
2022-08-26T20:31:19.511Z,18.64
2022-08-26T20:33:48.387Z,18.60
2022-08-26T20:36:17.332Z,18.55
2022-08-26T20:38:46.752Z,18.51
2022-08-26T20:41:15.388Z,18.45
2022-08-26T20:43:44.100Z,18.41
2022-08-26T20:46:18.761Z,18.38
2022-08-26T20:48:48.710Z,18.33
2022-08-26T20:51:18.365Z,18.30
2022-08-26T20:53:46.838Z,18.27
2022-08-26T20:56:16.400Z,18.24
2022-08-26T20:58:45.158Z,18.22
2022-08-26T21:01:23.260Z,18.19
2022-08-26T21:03:57.088Z,18.16
2022-08-26T21:06:25.352Z,18.16
2022-08-26T21:08:53.416Z,18.14
2022-08-26T21:11:25.308Z,18.10
2022-08-26T21:14:16.118Z,18.05
2022-08-26T21:16:43.494Z,18.00
2022-08-26T21:19:13.995Z,17.95
2022-08-26T21:21:42.603Z,17.94
2022-08-26T21:24:10.954Z,17.97
2022-08-26T21:26:39.565Z,17.95
2022-08-26T21:29:09.877Z,17.91
2022-08-26T21:31:43.568Z,17.85
2022-08-26T21:34:19.211Z,17.78
2022-08-26T21:36:49.259Z,17.73
2022-08-26T21:39:17.377Z,17.66
2022-08-26T21:41:47.363Z,17.60
2022-08-26T21:44:17.447Z,17.55
2022-08-26T21:46:46.960Z,17.50
2022-08-26T21:49:17.340Z,17.44
2022-08-26T21:51:48.482Z,17.40
2022-08-26T21:54:18.225Z,17.36
2022-08-26T21:56:47.579Z,17.34
2022-08-26T21:59:17.879Z,17.31
2022-08-26T22:01:46.304Z,17.28
2022-08-26T22:04:15.005Z,17.23
2022-08-26T22:06:46.366Z,17.21
2022-08-26T22:09:17.214Z,17.19
2022-08-26T22:11:47.434Z,17.18
2022-08-26T22:14:17.309Z,17.16
2022-08-26T22:16:50.231Z,17.14
2022-08-26T22:19:20.530Z,17.14
2022-08-26T22:21:53.738Z,17.15
2022-08-26T22:24:23.765Z,17.12
2022-08-26T22:26:51.925Z,17.09
2022-08-26T22:29:21.723Z,17.05
2022-08-26T22:31:52.293Z,17.00
2022-08-26T22:34:21.276Z,16.95
2022-08-26T22:36:50.167Z,16.92
2022-08-26T22:39:22.840Z,16.89
2022-08-26T22:41:52.627Z,16.86
2022-08-26T22:44:22.369Z,16.83
2022-08-26T22:46:54.364Z,16.79
2022-08-26T22:49:24.391Z,16.76
2022-08-26T22:51:52.401Z,16.73
2022-08-26T22:54:20.532Z,16.70
2022-08-26T22:56:48.925Z,16.66
2022-08-26T22:59:17.080Z,16.62
2022-08-26T23:01:47.429Z,16.60
2022-08-26T23:04:15.923Z,16.57
2022-08-26T23:06:47.585Z,16.54
2022-08-26T23:09:18.571Z,16.52
2022-08-26T23:11:48.641Z,16.52
2022-08-26T23:14:18.648Z,16.49
2022-08-26T23:16:47.613Z,16.46
2022-08-26T23:19:18.721Z,16.44
2022-08-26T23:21:48.328Z,16.42
2022-08-26T23:24:17.515Z,16.40
2022-08-26T23:26:46.180Z,16.38
2022-08-26T23:29:16.027Z,16.36
2022-08-26T23:31:44.593Z,16.36
2022-08-26T23:34:32.741Z,16.35
2022-08-26T23:37:02.018Z,16.34
2022-08-26T23:39:32.973Z,16.32
2022-08-26T23:42:01.815Z,16.30
2022-08-26T23:44:31.415Z,16.25
2022-08-26T23:46:59.772Z,16.22
2022-08-26T23:49:28.944Z,16.19
2022-08-26T23:52:15.852Z,16.16
2022-08-26T23:54:44.260Z,16.11
2022-08-26T23:57:12.322Z,16.08
2022-08-26T23:59:40.961Z,16.04
